Thunder radar more information blitzortung!


avis per Pluja more information rain snow radar


Visita la nostra xarxa de llocs de meteo:

Template documentation
and downloads

And another site



Rain From: 15-11-2018 00:00 Until: 23:59 warning for: Rain Level: Yellow info button

Pagina Historial Weather Underground text

Diari Resum May 19, 2017 Unitats:  Mètric    Imperial   Tant
« Previous Dia
SegĂźent Dia »
Diari Setmana Mensual Anual Personalitzada
  Maxima: Minima: Media:
Temperatura: -17.8 °C -12.5 °C -7.9 °C
Punt de rosada: -17.8 °C -17.3 °C -14.3 °C
Humitat: Humidity % 28 % 49 %
Wind Speed: 0 km/h 0 km/h 12.1 km/h
RĂ fegues de vent: 0 km/h - -
Vent:- - South
Pression baro: 0 hPa 34395 hPa -
Precipitacions: 33.02 mm    
Historical Graphs
 
 
Dades de taula per May 19, 2017
Temps Temperatura Punt de rosada Pression baro Vent Wind Speed RĂ fegues de vent Humitat Rainfall Rate (Hourly)
-17.8 °C -17.8 °C 0 hPa Calm     Humidity % 0 mm
00:00 -12.2 °C -15.1 °C 34462.7 hPa NNE 2.6 km/h 7.7 km/h 70 % 0 mm
00:04 -10.6 °C -13.7 °C 34395 hPa SSW 11.9 km/h 11.9 km/h 69 % 0 mm
00:10 -12.3 °C -15.2 °C 34462.7 hPa Calm   5.1 km/h 70 % 0 mm
00:20 -12.2 °C -15.1 °C 34462.7 hPa NNE 2.6 km/h 5.1 km/h 70 % 0 mm
00:30 -12.3 °C -15.2 °C 34462.7 hPa NE 2.6 km/h 5.1 km/h 70 % 0 mm
00:40 -12.3 °C -15.2 °C 34462.7 hPa NE 2.6 km/h 7.7 km/h 70 % 0 mm
00:50 -12.3 °C -15.3 °C 34462.7 hPa SW 2.6 km/h 10.3 km/h 69 % 0 mm
01:00 -12.4 °C -15.3 °C 34462.7 hPa Calm   2.6 km/h 70 % 0 mm
01:10 -12.4 °C -15.3 °C 34462.7 hPa Calm   2.6 km/h 70 % 0 mm
01:20 -12.5 °C -15.3 °C 34462.7 hPa Calm   2.6 km/h 71 % 0 mm
01:30 -12.5 °C -15.4 °C 34496.6 hPa NNE 2.6 km/h 5.1 km/h 70 % 0 mm
01:40 -12.4 °C -15.4 °C 34496.6 hPa WNW 7.7 km/h 10.3 km/h 69 % 0 mm
01:50 -12.3 °C -15.2 °C 34496.6 hPa West 2.6 km/h 7.7 km/h 70 % 0 mm
02:00 -12.2 °C -15.2 °C 34496.6 hPa WSW 5.1 km/h 5.1 km/h 69 % 0 mm
02:10 -12.2 °C -15.2 °C 34533.8 hPa West 5.1 km/h 7.7 km/h 69 % 0 mm
02:20 -12.1 °C -15.1 °C 34533.8 hPa WSW 5.1 km/h 5.1 km/h 69 % 0 mm
02:30 -11.9 °C -14.9 °C 34496.6 hPa WSW 2.6 km/h 7.7 km/h 69 % 0 mm
02:40 -11.7 °C -14.7 °C 34533.8 hPa SW 2.6 km/h 7.7 km/h 69 % 0 mm
02:50 -11.7 °C -14.8 °C 34533.8 hPa SW 5.1 km/h 10.3 km/h 68 % 0 mm
03:00 -11.5 °C -14.7 °C 34533.8 hPa SW 5.1 km/h 7.7 km/h 68 % 0 mm
03:10 -11.3 °C -14.6 °C 34533.8 hPa WSW 12.9 km/h 12.9 km/h 67 % 0 mm
03:20 -11.2 °C -14.5 °C 34533.8 hPa WSW 5.1 km/h 18.2 km/h 67 % 0 mm
03:30 -11.2 °C -14.6 °C 34533.8 hPa WSW 15.6 km/h 15.6 km/h 66 % 0 mm
03:40 -11.1 °C -14.6 °C 34533.8 hPa WSW 7.7 km/h 15.6 km/h 66 % 0 mm
03:50 -11 °C -14.6 °C 34533.8 hPa WSW 7.7 km/h 20.8 km/h 65 % 0 mm
04:00 -10.9 °C -14.5 °C 34533.8 hPa WSW 7.7 km/h 18.2 km/h 65 % 0 mm
04:10 -10.7 °C -14.2 °C 34533.8 hPa WSW 12.9 km/h 15.6 km/h 65 % 0 mm
04:20 -10.6 °C -14.3 °C 34533.8 hPa WSW 15.6 km/h 15.6 km/h 64 % 0 mm
04:30 -10.3 °C -14 °C 34533.8 hPa WSW 7.7 km/h 12.9 km/h 64 % 0 mm
04:40 -10.2 °C -13.9 °C 34533.8 hPa WSW 15.6 km/h 15.6 km/h 64 % 0 mm
04:50 -10.1 °C -13.9 °C 34533.8 hPa WSW 5.1 km/h 12.9 km/h 63 % 0 mm
05:00 -9.9 °C -13.9 °C 34567.7 hPa WSW 7.7 km/h 15.6 km/h 62 % 0 mm
05:10 -9.8 °C -13.8 °C 34533.8 hPa WSW 7.7 km/h 15.6 km/h 62 % 0 mm
05:20 -9.6 °C -13.7 °C 34533.8 hPa WSW 12.9 km/h 15.6 km/h 61 % 0 mm
05:30 -9.3 °C -13.5 °C 34567.7 hPa SW 5.1 km/h 10.3 km/h 61 % 0 mm
10:38 -9.1 °C -13.6 °C 34567.7 hPa WSW 11.9 km/h 11.9 km/h 59 % 0 mm
10:40 -9.1 °C -13.5 °C 34567.7 hPa West 15 km/h 15 km/h 59 % 0 mm
10:45 -8.9 °C -13.4 °C 34567.7 hPa SW 11.9 km/h 11.9 km/h 59 % 0 mm
10:50 -8.7 °C -13.3 °C 34567.7 hPa WNW 6 km/h 6 km/h 58 % 0 mm
10:55 -8.8 °C -13.7 °C 34567.7 hPa WSW 15 km/h 15 km/h 56 % 0 mm
11:00 -8.7 °C -13.6 °C 34567.7 hPa West 20.3 km/h 20.3 km/h 56 % 0 mm
11:05 -8.5 °C -13.4 °C 34567.7 hPa WSW 9 km/h 9 km/h 56 % 0 mm
11:10 -8.7 °C -13.9 °C 34567.7 hPa WSW 17.9 km/h 17.9 km/h 54 % 0 mm
11:15 -8.6 °C -13.8 °C 34567.7 hPa NNW 15 km/h 15 km/h 54 % 0 mm
11:20 -8.6 °C -13.9 °C 34567.7 hPa West 15 km/h 15 km/h 53 % 0 mm
11:25 -8.4 °C -13.7 °C 34567.7 hPa NW 23.8 km/h 23.8 km/h 53 % 0 mm
11:30 -8.2 °C -13.7 °C 34567.7 hPa SW 11.9 km/h 11.9 km/h 52 % 0 mm
11:35 -8.1 °C -13.6 °C 34567.7 hPa South 9 km/h 9 km/h 52 % 0 mm
11:40 -7.8 °C -13.4 °C 34567.7 hPa NNE 8 km/h 8 km/h 52 % 0 mm
11:45 -7.7 °C -13.4 °C 34567.7 hPa NW 15 km/h 15 km/h 51 % 0 mm
11:50 -7.7 °C -13.4 °C 34567.7 hPa NNE 19.6 km/h 19.6 km/h 51 % 0 mm
11:55 -7.7 °C -13.4 °C 34567.7 hPa ENE 11.9 km/h 11.9 km/h 51 % 0 mm
12:00 -7.3 °C -13.2 °C 34567.7 hPa East 9 km/h 9 km/h 50 % 0 mm
12:05 -7.6 °C -13.5 °C 34567.7 hPa South 14 km/h 14 km/h 50 % 0 mm
12:10 -7.6 °C -13.5 °C 34567.7 hPa SSE 9 km/h 9 km/h 50 % 0 mm
12:15 -7.3 °C -13.2 °C 34567.7 hPa SSW 16.6 km/h 16.6 km/h 50 % 0 mm
12:20 -7.2 °C -13.3 °C 34567.7 hPa SSW 20.9 km/h 20.9 km/h 49 % 0 mm
12:25 -6.9 °C -13 °C 34567.7 hPa SW 6 km/h 6 km/h 49 % 0 mm
12:30 -6.8 °C -13.1 °C 34567.7 hPa SSE 20.9 km/h 20.9 km/h 48 % 0 mm
12:35 -7.1 °C -13.3 °C 34567.7 hPa SW 11.9 km/h 11.9 km/h 48 % 0 mm
12:40 -6.7 °C -12.9 °C 34567.7 hPa SSE 6 km/h 6 km/h 48 % 0 mm
12:45 -6.6 °C -12.9 °C 34567.7 hPa East 6.8 km/h 6.8 km/h 48 % 0 mm
12:50 -6.4 °C -12.8 °C 34567.7 hPa South 15 km/h 15 km/h 48 % 0 mm
12:55 -6.4 °C -12.9 °C 34533.8 hPa South 12.7 km/h 12.7 km/h 47 % 0 mm
13:00 -6.2 °C -12.6 °C 34533.8 hPa SW 9.8 km/h 9.8 km/h 48 % 0 mm
13:05 -6.6 °C -13.3 °C 34533.8 hPa East 6 km/h 6 km/h 46 % 0 mm
13:10 -6.6 °C -13.1 °C 34533.8 hPa SSE 15 km/h 15 km/h 47 % 0 mm
13:15 -6.4 °C -13.1 °C 34533.8 hPa ESE 15 km/h 15 km/h 46 % 0 mm
13:20 -6.6 °C -13.3 °C 34533.8 hPa West 22 km/h 22 km/h 46 % 0 mm
13:25 -6.4 °C -13.1 °C 34533.8 hPa SSW 11.1 km/h 11.1 km/h 46 % 0 mm
13:30 -5.9 °C -12.8 °C 34533.8 hPa SSW 9 km/h 9 km/h 45 % 0 mm
13:35 -6.1 °C -13.4 °C 34533.8 hPa West 17.9 km/h 17.9 km/h 43 % 0 mm
13:40 -6 °C -13.4 °C 34496.6 hPa North 11.9 km/h 11.9 km/h 42 % 0 mm
13:45 -5.7 °C -13.4 °C 34496.6 hPa NE 11.9 km/h 11.9 km/h 41 % 0 mm
13:50 -5.7 °C -13.4 °C 34496.6 hPa NW 12.7 km/h 12.7 km/h 41 % 0 mm
13:55 -5.7 °C -13.4 °C 34462.7 hPa WSW 15 km/h 15 km/h 41 % 0 mm
14:00 -5.7 °C -13.6 °C 34462.7 hPa WSW 11.9 km/h 11.9 km/h 40 % 0 mm
14:05 -5.6 °C -13.4 °C 34462.7 hPa WSW 15 km/h 15 km/h 40 % 0 mm
14:10 -5.7 °C -14 °C 34462.7 hPa WNW 15 km/h 15 km/h 38 % 0 mm
14:15 -5.7 °C -14.2 °C 34462.7 hPa SW 20.9 km/h 20.9 km/h 37 % 0 mm
14:20 -5.6 °C -14.1 °C 34462.7 hPa ESE 17.9 km/h 17.9 km/h 37 % 0 mm
14:25 -5.6 °C -14.3 °C 34462.7 hPa NNE 15 km/h 15 km/h 36 % 0 mm
14:30 -5.4 °C -14.2 °C 34462.7 hPa WSW 16.1 km/h 16.1 km/h 36 % 0 mm
14:35 -5.4 °C -14.2 °C 34462.7 hPa SW 20.3 km/h 20.3 km/h 36 % 0 mm
14:40 -5.5 °C -14.5 °C 34462.7 hPa West 11.9 km/h 11.9 km/h 35 % 0 mm
14:45 -5.3 °C -14.3 °C 34462.7 hPa West 20.9 km/h 20.9 km/h 35 % 0 mm
14:50 -5.3 °C -14.6 °C 34462.7 hPa East 15 km/h 15 km/h 34 % 0 mm
14:55 -5.1 °C -14.1 °C 34462.7 hPa SSE 15 km/h 15 km/h 35 % 0 mm
15:00 -5.1 °C -14.1 °C 34462.7 hPa ENE 11.9 km/h 11.9 km/h 35 % 0 mm
15:05 -5.4 °C -14.7 °C 34462.7 hPa West 15 km/h 15 km/h 34 % 0 mm
15:10 -5.2 °C -14.4 °C 34462.7 hPa West 20.9 km/h 20.9 km/h 34 % 0 mm
15:15 -5.1 °C -14.3 °C 34462.7 hPa NNW 15 km/h 15 km/h 34 % 0 mm
15:20 -5.2 °C -14.5 °C 34462.7 hPa WSW 15 km/h 15 km/h 34 % 0 mm
15:25 -5.3 °C -14.6 °C 34462.7 hPa SW 11.9 km/h 11.9 km/h 34 % 0 mm
15:30 -5.4 °C -14.4 °C 34462.7 hPa South 15 km/h 15 km/h 35 % 0 mm
15:35 -5.4 °C -14.2 °C 34462.7 hPa South 15 km/h 15 km/h 36 % 0 mm
15:40 -5.6 °C -14.3 °C 34462.7 hPa WSW 19.2 km/h 19.2 km/h 36 % 0 mm
15:41 -5.6 °C -14.3 °C 34462.7 hPa SW 17.9 km/h 17.9 km/h 36 % 0 mm
15:46 -5.4 °C -14.2 °C 34462.7 hPa SSW 11.6 km/h 11.6 km/h 36 % 0 mm
15:51 -5.4 °C -14.2 °C 34462.7 hPa SW 23.8 km/h 23.8 km/h 36 % 0 mm
15:56 -5.4 °C -14.4 °C 34462.7 hPa SSW 26.9 km/h 26.9 km/h 35 % 0 mm
16:01 -5.4 °C -14.2 °C 34462.7 hPa WSW 15 km/h 15.3 km/h 36 % 0 mm
16:06 -5.3 °C -14.6 °C 34462.7 hPa South 6 km/h 6 km/h 34 % 0 mm
16:11 -5.1 °C -13.8 °C 34462.7 hPa WSW 20.3 km/h 20.3 km/h 36 % 0 mm
16:16 -5.3 °C -14.6 °C 34462.7 hPa ESE 20.9 km/h 20.9 km/h 34 % 0 mm
16:21 -5.1 °C -13.9 °C 34462.7 hPa SSW 23.8 km/h 23.8 km/h 36 % 0 mm
16:26 -5.1 °C -14.1 °C 34428.8 hPa SW 17.9 km/h 17.9 km/h 35 % 0 mm
16:31 -4.9 °C -14.2 °C 34428.8 hPa West 15.3 km/h 15.3 km/h 34 % 0 mm
16:36 -4.9 °C -13.9 °C 34428.8 hPa SSW 20.9 km/h 20.9 km/h 35 % 0 mm
16:41 -4.9 °C -14.2 °C 34428.8 hPa SW 15 km/h 15 km/h 34 % 0 mm
16:46 -4.9 °C -14.2 °C 34428.8 hPa SW 23.8 km/h 23.8 km/h 34 % 0 mm
16:51 -4.9 °C -14.2 °C 34428.8 hPa WSW 15 km/h 15 km/h 34 % 0 mm
16:56 -5.1 °C -13.8 °C 34428.8 hPa SSE 15 km/h 15 km/h 36 % 0 mm
17:01 -5.2 °C -14.3 °C 34428.8 hPa SW 17.9 km/h 17.9 km/h 35 % 0 mm
17:06 -5.3 °C -14.6 °C 34428.8 hPa SSE 15.3 km/h 15.3 km/h 34 % 0 mm
17:11 -5.2 °C -14.3 °C 34428.8 hPa SSW 9.3 km/h 9.3 km/h 35 % 0 mm
17:16 -5.3 °C -14.3 °C 34428.8 hPa SSW 15 km/h 15 km/h 35 % 0 mm
17:21 -5.3 °C -14.3 °C 34428.8 hPa SSW 20.9 km/h 20.9 km/h 35 % 0 mm
17:26 -5.2 °C -14.3 °C 34428.8 hPa SW 25.4 km/h 25.4 km/h 35 % 0 mm
17:31 -5.1 °C -14.1 °C 34428.8 hPa SW 20.9 km/h 20.9 km/h 35 % 0 mm
17:36 -5.1 °C -14.1 °C 34428.8 hPa SSW 29.8 km/h 29.8 km/h 35 % 0 mm
17:41 -5.3 °C -14.3 °C 34462.7 hPa SW 16.6 km/h 16.6 km/h 35 % 0 mm
17:46 -5.3 °C -14.6 °C 34462.7 hPa SSW 17.9 km/h 17.9 km/h 34 % 0 mm
17:51 -5.2 °C -14.4 °C 34462.7 hPa South 15 km/h 15 km/h 34 % 0 mm
17:56 -5.1 °C -14.1 °C 34428.8 hPa WSW 10.3 km/h 10.3 km/h 35 % 0 mm
18:01 -5.1 °C -14.4 °C 34428.8 hPa SW 20.9 km/h 20.9 km/h 34 % 0 mm
18:02 -5.2 °C -14.5 °C 34428.8 hPa WSW 20.9 km/h 20.9 km/h 34 % 0 mm
18:07 -5.1 °C -14.1 °C 34428.8 hPa SW 17.9 km/h 17.9 km/h 35 % 0 mm
18:12 -5.3 °C -14.6 °C 34428.8 hPa WSW 17.9 km/h 17.9 km/h 34 % 0 mm
18:17 -5.3 °C -14.8 °C 34428.8 hPa SW 11.9 km/h 11.9 km/h 33 % 0 mm
18:22 -5.2 °C -14.9 °C 34428.8 hPa NNW 15 km/h 15 km/h 32 % 0 mm
18:27 -5.2 °C -15.2 °C 34428.8 hPa WSW 11.9 km/h 11.9 km/h 31 % 0 mm
18:32 -5.2 °C -15.2 °C 34428.8 hPa West 17.9 km/h 17.9 km/h 31 % 0 mm
18:37 -5.4 °C -15.6 °C 34428.8 hPa West 11.9 km/h 11.9 km/h 30 % 0 mm
18:42 -5.4 °C -15.7 °C 34428.8 hPa WNW 16.1 km/h 16.1 km/h 30 % 0 mm
18:47 -5.4 °C -15.6 °C 34428.8 hPa SW 20.9 km/h 20.9 km/h 30 % 0 mm
18:52 -5.2 °C -15.5 °C 34428.8 hPa WSW 11.9 km/h 11.9 km/h 30 % 0 mm
18:57 -5.3 °C -15.5 °C 34462.7 hPa West 15 km/h 15 km/h 30 % 0 mm
19:02 -5.5 °C -15.7 °C 34462.7 hPa West 11.9 km/h 11.9 km/h 30 % 0 mm
19:07 -5.6 °C -16.1 °C 34462.7 hPa SW 20.9 km/h 20.9 km/h 29 % 0 mm
19:10 -9.6 °C -13.4 °C 34533.8 hPa ENE 2.6 km/h 2.6 km/h 64 % 0 mm
19:12 -5.6 °C -16.1 °C 34462.7 hPa North 20.9 km/h 20.9 km/h 29 % 0 mm
19:17 -5.8 °C -16.2 °C 34462.7 hPa West 23.8 km/h 23.8 km/h 29 % 0 mm
19:20 -9.7 °C -13.3 °C 34533.8 hPa NE 2.6 km/h 5.1 km/h 65 % 0 mm
19:22 -5.9 °C -16.3 °C 34462.7 hPa NNW 20.9 km/h 20.9 km/h 29 % 0 mm
19:27 -5.9 °C -16.3 °C 34462.7 hPa WSW 15 km/h 15 km/h 29 % 0 mm
19:30 -9.7 °C -13.3 °C 34533.8 hPa Calm   2.6 km/h 65 % 0 mm
19:32 -5.9 °C -16.3 °C 34462.7 hPa SSW 16.6 km/h 16.6 km/h 29 % 0 mm
19:37 -6.1 °C -16.7 °C 34462.7 hPa WSW 15 km/h 15 km/h 28 % 0 mm
19:40 -9.7 °C -13.2 °C 34533.8 hPa ENE 5.1 km/h 7.7 km/h 66 % 0 mm
19:42 -6.1 °C -16.5 °C 34462.7 hPa WSW 15 km/h 15 km/h 29 % 0 mm
19:47 -6.1 °C -16.5 °C 34462.7 hPa WNW 25.1 km/h 25.1 km/h 29 % 0 mm
19:50 -9.7 °C -13.1 °C 34533.8 hPa ENE 2.6 km/h 5.1 km/h 67 % 0 mm
19:52 -6.2 °C -16.6 °C 34462.7 hPa West 15 km/h 15 km/h 29 % 0 mm
19:57 -6.3 °C -16.7 °C 34462.7 hPa SW 9 km/h 9 km/h 29 % 0 mm
20:00 -9.8 °C -13.3 °C 34567.7 hPa Calm   2.6 km/h 66 % 0 mm
20:02 -6.4 °C -16.8 °C 34462.7 hPa WSW 17.9 km/h 17.9 km/h 29 % 0 mm
20:07 -6.4 °C -16.8 °C 34462.7 hPa West 11.9 km/h 11.9 km/h 29 % 0 mm
20:10 -9.8 °C -13.1 °C 34533.8 hPa NE 2.6 km/h 5.1 km/h 68 % 0 mm
20:12 -6.5 °C -16.8 °C 34462.7 hPa WSW 6 km/h 6 km/h 29 % 0 mm
20:17 -6.6 °C -16.9 °C 34462.7 hPa WSW 14 km/h 14 km/h 29 % 0 mm
20:20 -9.8 °C -13.1 °C 34533.8 hPa NE 2.6 km/h 5.1 km/h 68 % 0 mm
20:22 -6.7 °C -16.8 °C 34462.7 hPa West 9 km/h 9 km/h 30 % 0 mm
20:27 -6.8 °C -16.8 °C 34428.8 hPa WSW 15 km/h 15 km/h 30 % 0 mm
20:30 -9.8 °C -12.9 °C 34533.8 hPa ENE 5.1 km/h 7.7 km/h 69 % 0 mm
20:32 -6.8 °C -16.9 °C 34428.8 hPa WSW 9 km/h 9 km/h 30 % 0 mm
20:37 -6.9 °C -17 °C 34428.8 hPa WNW 6 km/h 6 km/h 30 % 0 mm
20:40 -9.9 °C -12.9 °C 34567.7 hPa NE 2.6 km/h 7.7 km/h 70 % 0 mm
20:42 -7 °C -17 °C 34496.6 hPa NNW 9 km/h 9 km/h 30 % 0 mm
20:47 -7.1 °C -17.1 °C 34496.6 hPa WSW 9 km/h 9 km/h 30 % 0 mm
20:50 -9.9 °C -12.9 °C 34567.7 hPa NE 7.7 km/h 7.7 km/h 70 % 0 mm
20:52 -7.2 °C -17.2 °C 34496.6 hPa Calm     30 % 0 mm
20:57 -7.2 °C -17.2 °C 34462.7 hPa WNW 6 km/h 6 km/h 30 % 0 mm
21:00 -9.9 °C -12.6 °C 34567.7 hPa ENE 15.6 km/h 15.6 km/h 73 % 0 mm
21:02 -7.3 °C -17.3 °C 34462.7 hPa Calm     30 % 0 mm
21:07 -7.5 °C -17.2 °C 34462.7 hPa NNE 15 km/h 15 km/h 31 % 0 mm
21:10 -9.9 °C -12.4 °C 34567.7 hPa ENE 15.6 km/h 18.2 km/h 74 % 0 mm
21:12 -7.7 °C -16.8 °C 34462.7 hPa NE 15 km/h 15 km/h 33 % 0 mm
21:17 -7.9 °C -16.6 °C 34462.7 hPa NE 15 km/h 15 km/h 35 % 0 mm
21:20 -10 °C -12.4 °C 34567.7 hPa ENE 7.7 km/h 20.8 km/h 75 % 0 mm
21:22 -8.1 °C -16.1 °C 34462.7 hPa NNE 11.1 km/h 11.1 km/h 38 % 0 mm
21:27 -8.2 °C -15.7 °C 34496.6 hPa ENE 20.9 km/h 20.9 km/h 41 % 0 mm
21:30 -10 °C -12.6 °C 34567.7 hPa East 12.9 km/h 20.8 km/h 74 % 0 mm
21:32 -8.4 °C -15.1 °C 34496.6 hPa NNE 17.9 km/h 17.9 km/h 45 % 0 mm
21:37 -8.5 °C -15 °C 34496.6 hPa ENE 11.9 km/h 11.9 km/h 46 % 0 mm
21:40 -10.1 °C -12.7 °C 34601.5 hPa East 12.9 km/h 20.8 km/h 73 % 0 mm
21:42 -8.6 °C -14.6 °C 34533.8 hPa ENE 17.9 km/h 17.9 km/h 49 % 0 mm
21:47 -8.7 °C -14.6 °C 34533.8 hPa North 11.9 km/h 11.9 km/h 50 % 0 mm
21:50 -10.1 °C -12.8 °C 34601.5 hPa East 7.7 km/h 12.9 km/h 72 % 0 mm
21:52 -8.8 °C -14.4 °C 34533.8 hPa ENE 20.9 km/h 20.9 km/h 51 % 0 mm
21:57 -8.8 °C -14.3 °C 34533.8 hPa NNE 11.9 km/h 11.9 km/h 52 % 0 mm
22:00 -10.1 °C -13 °C 34601.5 hPa ENE 7.7 km/h 12.9 km/h 71 % 0 mm
22:02 -8.9 °C -14.3 °C 34533.8 hPa ESE 15.3 km/h 15.3 km/h 52 % 0 mm
22:07 -8.9 °C -14.2 °C 34533.8 hPa ENE 11.9 km/h 11.9 km/h 53 % 0 mm
22:10 -10.2 °C -12.9 °C 34567.7 hPa ENE 7.7 km/h 15.6 km/h 72 % 0 mm
22:12 -8.9 °C -14.1 °C 34533.8 hPa ENE 6.3 km/h 6.3 km/h 54 % 0 mm
22:17 -8.9 °C -14.1 °C 34533.8 hPa NE 11.9 km/h 11.9 km/h 54 % 0 mm
22:20 -10.3 °C -13 °C 34567.7 hPa ENE 5.1 km/h 12.9 km/h 72 % 0 mm
22:22 -9 °C -14 °C 34533.8 hPa East 18.3 km/h 18.3 km/h 55 % 0 mm
22:27 -9.1 °C -13.9 °C 34533.8 hPa NNE 15 km/h 15 km/h 56 % 0 mm
22:32 -9.1 °C -13.8 °C 34533.8 hPa ENE 11.9 km/h 11.9 km/h 57 % 0 mm
22:37 -9.1 °C -13.8 °C 34496.6 hPa East 11.9 km/h 11.9 km/h 57 % 0 mm
22:40 -10.4 °C -13.3 °C 34601.5 hPa NE 7.7 km/h 7.7 km/h 71 % 0 mm
22:42 -9.1 °C -13.8 °C 34496.6 hPa NNE 9 km/h 9 km/h 57 % 0 mm
22:47 -9.2 °C -13.8 °C 34496.6 hPa ESE 8.5 km/h 8.5 km/h 58 % 0 mm
22:50 -10.5 °C -13.4 °C 34601.5 hPa NE 5.1 km/h 7.7 km/h 71 % 0 mm
22:52 -9.2 °C -13.7 °C 34533.8 hPa ENE 11.9 km/h 11.9 km/h 59 % 0 mm
23:00 -10.5 °C -13.5 °C 34601.5 hPa NNE 7.7 km/h 7.7 km/h 70 % 0 mm
23:02 -9.3 °C -13.7 °C 34533.8 hPa East 9 km/h 9 km/h 59 % 0 mm
23:07 -9.3 °C -13.8 °C 34496.6 hPa ENE 9 km/h 9 km/h 59 % 0 mm
23:10 -10.7 °C -13.7 °C 34601.5 hPa NNE 2.6 km/h 7.7 km/h 70 % 0 mm
23:12 -9.4 °C -13.7 °C 34496.6 hPa ENE 9.8 km/h 9.8 km/h 60 % 0 mm
23:17 -9.4 °C -13.7 °C 34496.6 hPa ENE 11.9 km/h 11.9 km/h 60 % 0 mm
23:20 -10.7 °C -13.7 °C 34601.5 hPa NE 7.7 km/h 7.7 km/h 70 % 0 mm
23:22 -9.4 °C -13.6 °C 34533.8 hPa NNE 17.9 km/h 17.9 km/h 61 % 0 mm
23:27 -9.4 °C -13.6 °C 34533.8 hPa NE 9 km/h 9 km/h 61 % 0 mm
23:30 -10.7 °C -13.8 °C 34601.5 hPa North 2.6 km/h 5.1 km/h 69 % 0 mm
23:32 -9.4 °C -13.4 °C 34533.8 hPa NNE 11.9 km/h 11.9 km/h 62 % 0 mm
23:37 -9.4 °C -13.4 °C 34533.8 hPa ENE 9 km/h 9 km/h 62 % 0 mm
23:40 -10.7 °C -13.7 °C 34601.5 hPa North 2.6 km/h 7.7 km/h 70 % 0 mm
23:42 -9.5 °C -13.5 °C 34533.8 hPa NE 11.9 km/h 11.9 km/h 62 % 0 mm
23:47 -9.5 °C -13.5 °C 34533.8 hPa NNE 11.9 km/h 11.9 km/h 62 % 0 mm
23:50 -10.7 °C -13.7 °C 34601.5 hPa NNW 7.7 km/h 12.9 km/h 69 % 0 mm
23:52 -9.6 °C -13.4 °C 34533.8 hPa ENE 9 km/h 9 km/h 63 % 0 mm
23:57 -9.6 °C -13.4 °C 34533.8 hPa East 9 km/h 9 km/h 63 % 0 mm
Meteo Sesrovires
Elogis d' Weather Underground - 2.5 mb

Guio original per  Jim McMurry - jmcmurry@mwt.net Adaptat per a la plantilla per  Wim van der Kuil - Leuven-Template.eu

Trobareu la nostra informacio del temps tambe a:

Weather Underground

AWEKAS